Time;durP1;ratioP1;P1;durP2;ratioP2;P2;SDS_P1;SDS_P2;PMS_P1;PMS_P2;Temp;Humidity;BMP_temperature;BMP_pressure;BME280_temperature;BME280_humidity;BME280_pressure;Samples;Min_cycle;Max_cycle;Signal;HPM_P1;HPM_P2
2021/03/09 00:02:02;;;;;;;5.78;2.25;;;;;;;1.72;70.60;100260.05;1708022;84;21356;-67
2021/03/09 00:04:35;;;;;;;4.72;2.55;;;;;;;1.77;70.30;100260.64;1708981;84;22152;-67
2021/03/09 00:07:08;;;;;;;5.83;3.12;;;;;;;1.76;70.14;100261.58;1708131;84;21232;-65
2021/03/09 00:09:41;;;;;;;5.75;2.35;;;;;;;1.76;70.08;100255.13;1709357;84;21271;-64
2021/03/09 00:12:15;;;;;;;4.60;2.83;;;;;;;1.72;69.66;100256.17;1708334;84;21350;-67
2021/03/09 00:14:48;;;;;;;5.40;2.70;;;;;;;1.67;69.55;100247.03;1708820;84;21865;-66
2021/03/09 00:17:23;;;;;;;8.45;3.50;;;;;;;1.62;69.49;100248.56;1702798;84;22118;-68
2021/03/09 00:19:56;;;;;;;5.70;2.90;;;;;;;1.55;69.42;100251.09;1709107;84;21802;-66
2021/03/09 00:22:29;;;;;;;7.33;3.43;;;;;;;1.52;69.60;100248.66;1708187;84;21291;-67
2021/03/09 00:25:02;;;;;;;7.37;3.42;;;;;;;1.51;69.59;100247.42;1709228;84;21221;-66
2021/03/09 00:27:35;;;;;;;7.12;3.08;;;;;;;1.43;69.53;100242.69;1708154;84;21236;-67
2021/03/09 00:30:09;;;;;;;5.03;2.87;;;;;;;1.38;69.57;100242.89;1709274;84;21153;-66
2021/03/09 00:32:42;;;;;;;;;;;;;;;1.38;69.83;100236.45;1710608;84;21299;-66
2021/03/09 00:35:15;;;;;;;7.37;3.45;;;;;;;1.43;69.87;100236.69;1708850;84;20180;-66
2021/03/09 00:37:48;;;;;;;6.58;3.33;;;;;;;1.45;69.85;100238.73;1708131;84;21200;-66
2021/03/09 00:40:21;;;;;;;10.97;5.77;;;;;;;1.46;69.89;100238.64;1709234;84;21263;-67
2021/03/09 00:42:54;;;;;;;14.15;4.95;;;;;;;1.49;70.03;100230.75;1708234;84;21310;-66
2021/03/09 00:45:27;;;;;;;8.63;4.42;;;;;;;1.54;70.33;100232.64;1714215;83;21329;-67
2021/03/09 00:48:01;;;;;;;8.23;4.72;;;;;;;1.60;70.31;100238.75;1718583;83;22135;-67
2021/03/09 00:50:34;;;;;;;8.60;5.13;;;;;;;1.66;70.17;100238.45;1682902;83;21324;-67
2021/03/09 00:53:07;;;;;;;5.63;2.80;;;;;;;1.68;70.21;100235.33;1666956;86;21240;-67
2021/03/09 00:55:41;;;;;;;7.40;3.65;;;;;;;1.71;70.13;100239.49;1666277;84;22229;-67
2021/03/09 00:58:14;;;;;;;5.60;3.25;;;;;;;1.70;70.16;100237.36;1636671;86;21363;-68
2021/03/09 01:00:47;;;;;;;4.53;2.70;;;;;;;1.76;70.35;100233.64;1698643;84;21178;-67
2021/03/09 01:03:21;;;;;;;5.67;3.00;;;;;;;1.78;70.16;100235.67;1709986;84;21402;-67
2021/03/09 01:05:54;;;;;;;6.08;2.92;;;;;;;1.77;70.36;100233.99;1709294;83;21264;-67
2021/03/09 01:08:27;;;;;;;5.55;2.70;;;;;;;1.79;70.39;100239.45;1709575;84;21915;-67
2021/03/09 01:11:00;;;;;;;4.62;3.05;;;;;;;1.83;70.36;100233.23;1710101;83;21305;-67
2021/03/09 01:13:33;;;;;;;5.90;2.40;;;;;;;1.88;70.24;100235.11;1710076;84;21189;-67
2021/03/09 01:16:06;;;;;;;6.35;3.00;;;;;;;1.93;70.22;100239.58;1699332;83;21244;-68
2021/03/09 01:18:40;;;;;;;6.15;2.98;;;;;;;1.95;70.02;100236.45;1708026;83;21649;-65
2021/03/09 01:21:13;;;;;;;4.80;2.45;;;;;;;1.95;70.11;100237.74;1698086;83;21324;-66
2021/03/09 01:23:46;;;;;;;5.37;3.20;;;;;;;1.95;69.92;100239.03;1656977;86;21302;-66
2021/03/09 01:26:18;;;;;;;6.12;2.85;;;;;;;1.90;69.73;100246.19;1669487;86;21165;-67
2021/03/09 01:28:52;;;;;;;5.12;2.67;;;;;;;1.90;69.75;100247.93;1676357;85;21917;-66
2021/03/09 01:31:25;;;;;;;5.00;2.43;;;;;;;1.90;69.41;100255.67;1677399;85;21838;-67
2021/03/09 01:33:58;;;;;;;2.08;1.52;;;;;;;1.91;69.20;100254.29;1676295;85;21236;-66
2021/03/09 01:36:31;;;;;;;3.10;1.93;;;;;;;1.94;68.95;100257.17;1676935;85;21152;-67
2021/03/09 01:39:04;;;;;;;3.08;1.67;;;;;;;1.96;68.75;100255.33;1676354;85;21311;-66
2021/03/09 01:41:37;;;;;;;4.45;1.80;;;;;;;1.97;68.37;100255.27;1656527;85;22096;-66
2021/03/09 01:44:10;;;;;;;3.30;2.10;;;;;;;1.96;68.13;100252.30;1676712;85;21172;-66
2021/03/09 01:46:43;;;;;;;4.57;2.10;;;;;;;1.96;67.98;100257.46;1677494;85;21291;-66
2021/03/09 01:49:17;;;;;;;3.77;2.20;;;;;;;1.95;67.81;100263.56;1676401;85;21346;-66
2021/03/09 01:51:50;;;;;;;4.60;2.15;;;;;;;1.93;67.78;100257.66;1676221;84;21200;-66
2021/03/09 01:54:23;;;;;;;3.02;1.90;;;;;;;1.94;67.76;100261.88;1675979;85;21199;-67
2021/03/09 01:56:56;;;;;;;4.00;2.40;;;;;;;1.95;67.71;100262.27;1677359;85;21321;-66
2021/03/09 01:59:29;;;;;;;4.70;2.93;;;;;;;1.93;67.65;100262.81;1676121;85;21632;-66
2021/03/09 02:02:02;;;;;;;4.47;2.12;;;;;;;1.91;67.50;100262.03;1677063;85;21287;-66
2021/03/09 02:04:35;;;;;;;7.80;2.67;;;;;;;1.86;67.43;100262.73;1676334;85;21192;-67
2021/03/09 02:07:08;;;;;;;2.85;1.90;;;;;;;1.79;67.31;100260.09;1677389;85;21263;-66
2021/03/09 02:09:41;;;;;;;5.22;2.30;;;;;;;1.70;67.25;100264.46;1675804;85;21894;-66
2021/03/09 02:12:24;;;;;;;4.80;2.90;;;;;;;1.61;67.35;100270.55;1677034;85;21199;-65
2021/03/09 02:15:28;;;;;;;6.12;3.22;;;;;;;1.48;67.37;100285.82;1676058;85;21342;-66
2021/03/09 02:18:32;;;;;;;5.15;2.42;;;;;;;1.40;67.63;100285.40;1677426;85;21259;-66
2021/03/09 02:21:44;;;;;;;4.55;2.67;;;;;;;1.35;67.62;100291.24;1665862;84;21333;-67
2021/03/09 02:24:46;;;;;;;4.22;2.50;;;;;;;1.31;67.38;100293.61;1699859;84;21763;-66
2021/03/09 02:27:37;;;;;;;6.50;2.70;;;;;;;1.20;67.05;100287.69;1697306;84;21285;-67
2021/03/09 02:30:21;;;;;;;4.75;2.15;;;;;;;1.18;66.87;100296.41;1726546;81;21306;-65
2021/03/09 02:33:04;;;;;;;3.92;1.90;;;;;;;1.12;66.52;100298.01;1704680;84;21280;-65
2021/03/09 02:35:42;;;;;;;3.70;1.67;;;;;;;1.02;66.27;100307.09;1702113;84;21222;-64
2021/03/09 02:38:14;;;;;;;3.33;1.70;;;;;;;0.92;66.10;100308.00;1704452;84;21372;-67
2021/03/09 02:40:48;;;;;;;2.20;1.65;;;;;;;0.84;66.05;100311.83;1703278;84;21182;-67
2021/03/09 02:43:21;;;;;;;3.10;1.90;;;;;;;0.74;66.04;100314.02;1704686;84;21304;-67
2021/03/09 02:45:54;;;;;;;3.05;1.80;;;;;;;0.62;66.01;100318.48;1703339;84;21234;-66
2021/03/09 02:48:28;;;;;;;3.75;2.10;;;;;;;0.50;66.11;100320.35;1704678;84;21150;-67
2021/03/09 02:51:01;;;;;;;4.67;2.52;;;;;;;0.41;66.22;100319.46;1703428;82;21280;-66
2021/03/09 02:53:35;;;;;;;2.02;1.45;;;;;;;0.31;66.24;100324.20;1704804;84;21812;-66
2021/03/09 02:56:08;;;;;;;4.65;2.20;;;;;;;0.20;66.37;100323.02;1703327;84;21220;-65
2021/03/09 02:58:43;;;;;;;4.95;2.10;;;;;;;0.10;66.42;100322.59;1705029;84;21170;-65
2021/03/09 03:01:16;;;;;;;4.28;2.10;;;;;;;-0.01;66.54;100320.97;1703493;84;21327;-66
2021/03/09 03:03:50;;;;;;;4.03;2.02;;;;;;;-0.09;66.70;100326.45;1704884;84;21852;-64
2021/03/09 03:06:23;;;;;;;2.95;2.02;;;;;;;-0.17;66.76;100322.55;1703583;84;21182;-65
2021/03/09 03:08:58;;;;;;;5.85;2.85;;;;;;;-0.25;66.86;100328.47;1704688;84;21285;-64
2021/03/09 03:11:31;;;;;;;5.15;2.33;;;;;;;-0.33;66.94;100330.09;1703214;84;21342;-64
2021/03/09 03:14:05;;;;;;;5.50;2.90;;;;;;;-0.39;67.05;100336.80;1704505;84;21273;-64
2021/03/09 03:16:41;;;;;;;12.63;5.20;;;;;;;-0.46;67.17;100338.40;1704381;84;21202;-65
2021/03/09 03:19:15;;;;;;;17.23;6.75;;;;;;;-0.49;67.29;100339.36;1684768;84;21171;-64
2021/03/09 03:21:48;;;;;;;10.98;4.47;;;;;;;-0.53;67.34;100338.27;1704839;84;21265;-65
2021/03/09 03:24:21;;;;;;;8.95;4.20;;;;;;;-0.57;67.38;100349.13;1704538;84;21269;-67
2021/03/09 03:26:54;;;;;;;9.45;3.98;;;;;;;-0.63;67.36;100348.55;1704825;84;21270;-66
2021/03/09 03:29:27;;;;;;;10.93;5.20;;;;;;;-0.70;67.32;100355.69;1703399;84;21297;-65
2021/03/09 03:32:00;;;;;;;10.87;5.83;;;;;;;-0.78;67.34;100347.00;1704978;84;21261;-65
2021/03/09 03:34:35;;;;;;;8.00;4.35;;;;;;;-0.86;67.47;100342.61;1704477;84;21268;-65
2021/03/09 03:37:08;;;;;;;4.97;2.85;;;;;;;;;;1704685;84;21276;-66
2021/03/09 03:39:41;;;;;;;4.50;2.42;;;;;;;-0.93;67.66;100342.95;1717317;83;21272;-64
2021/03/09 03:42:14;;;;;;;4.97;2.50;;;;;;;-0.98;67.76;100339.72;1687822;85;21804;-65
2021/03/09 03:44:47;;;;;;;4.45;2.45;;;;;;;-0.99;67.81;100347.03;1717859;83;21129;-66
2021/03/09 03:47:21;;;;;;;5.28;2.40;;;;;;;-1.01;67.79;100344.53;1704482;84;21800;-67
2021/03/09 03:49:55;;;;;;;6.55;2.62;;;;;;;-1.02;67.94;100349.72;1717843;83;21810;-66
2021/03/09 03:52:58;;;;;;;6.53;2.27;;;;;;;-1.03;67.91;100346.78;1703754;82;21301;-67
2021/03/09 03:55:55;;;;;;;8.85;3.27;;;;;;;-1.00;67.80;100355.19;1704413;84;21831;-67
2021/03/09 03:58:46;;;;;;;22.77;5.28;;;;;;;-1.02;67.50;100356.14;1704669;84;21269;-66
2021/03/09 04:01:21;;;;;;;10.50;3.90;;;;;;;-1.03;67.46;100358.34;1703843;84;21304;-66
2021/03/09 04:03:55;;;;;;;5.37;2.50;;;;;;;-1.02;67.29;100356.14;1707261;82;21149;-67
2021/03/09 04:06:29;;;;;;;5.95;2.77;;;;;;;-0.94;67.36;100365.67;1711606;82;21575;-68
2021/03/09 04:09:05;;;;;;;5.08;2.47;;;;;;;-0.78;67.33;100363.71;1727008;82;21162;-68
2021/03/09 04:11:38;;;;;;;5.97;2.65;;;;;;;-0.51;67.11;100359.61;1727139;82;21341;-68
2021/03/09 04:14:12;;;;;;;5.37;2.42;;;;;;;-0.26;66.61;100361.52;1688326;82;21200;-68
2021/03/09 04:16:48;;;;;;;9.33;4.22;;;;;;;-0.03;66.17;100372.52;1710783;82;21300;-68
2021/03/09 04:19:22;;;;;;;27.17;11.78;;;;;;;0.18;65.81;100359.14;1704747;82;21192;-69
2021/03/09 04:21:56;;;;;;;25.40;9.35;;;;;;;0.40;65.14;100365.01;1727615;82;21259;-68
2021/03/09 04:24:29;;;;;;;32.65;15.20;;;;;;;0.56;64.66;100372.86;1715912;82;21311;-68
2021/03/09 04:27:02;;;;;;;14.18;6.30;;;;;;;0.78;64.18;100380.43;1696860;84;21363;-68
2021/03/09 04:29:35;;;;;;;7.45;2.20;;;;;;;1.08;63.60;100375.95;1693708;84;21898;-68
2021/03/09 04:32:08;;;;;;;5.70;3.00;;;;;;;1.57;62.48;100382.13;1693579;83;21316;-67
2021/03/09 04:34:41;;;;;;;5.67;2.83;;;;;;;2.19;61.51;100383.25;1696516;84;21605;-69
2021/03/09 04:37:14;;;;;;;5.03;2.47;;;;;;;2.95;59.94;100380.79;1694638;84;21336;-67
2021/03/09 04:39:48;;;;;;;4.33;2.72;;;;;;;3.75;58.26;100379.22;1697860;84;21626;-67
2021/03/09 04:42:21;;;;;;;5.33;2.47;;;;;;;4.52;56.59;100379.20;1697969;83;21229;-67
2021/03/09 04:44:54;;;;;;;4.33;2.30;;;;;;;5.24;54.58;100380.21;1697744;84;21320;-67
2021/03/09 04:47:28;;;;;;;6.28;2.80;;;;;;;5.92;52.60;100378.75;1698118;84;21225;-66
2021/03/09 04:50:02;;;;;;;6.12;3.33;;;;;;;6.46;51.39;100379.33;1697837;83;21202;-66
2021/03/09 04:52:35;;;;;;;5.62;2.90;;;;;;;6.73;50.15;100382.11;1699008;83;21309;-67
2021/03/09 04:55:09;;;;;;;5.23;2.50;;;;;;;6.82;49.20;100385.84;1698566;84;21353;-68
2021/03/09 04:57:43;;;;;;;;;;;;;;;6.78;48.50;100383.11;1700783;84;21292;-69
2021/03/09 05:00:18;;;;;;;3.12;1.98;;;;;;;6.74;47.78;100391.59;1703384;82;20192;-70
2021/03/09 05:02:51;;;;;;;4.22;2.75;;;;;;;6.72;47.75;100389.56;1701345;84;21293;-69
2021/03/09 05:05:25;;;;;;;5.08;2.85;;;;;;;6.95;47.43;100397.52;1702492;84;21297;-69
2021/03/09 05:07:59;;;;;;;4.58;2.80;;;;;;;7.29;46.97;100402.77;1700728;84;22167;-68
2021/03/09 05:10:33;;;;;;;4.97;2.60;;;;;;;7.81;46.41;100399.75;1699591;84;21325;-68
2021/03/09 05:13:06;;;;;;;4.35;2.50;;;;;;;8.28;45.36;100401.88;1697339;84;21376;-68
2021/03/09 05:15:39;;;;;;;7.37;3.98;;;;;;;8.76;44.95;100408.51;1700850;84;21265;-69
2021/03/09 05:18:12;;;;;;;6.83;4.10;;;;;;;9.20;43.28;100406.25;1697718;84;21331;-70
2021/03/09 05:20:45;;;;;;;6.75;3.95;;;;;;;9.50;43.32;100411.13;1696514;84;21272;-70
2021/03/09 05:23:19;;;;;;;6.90;4.17;;;;;;;9.89;42.66;100411.41;1695268;84;21231;-70
2021/03/09 05:25:52;;;;;;;10.63;5.58;;;;;;;10.25;40.95;100408.35;1696863;84;21273;-69
2021/03/09 05:28:25;;;;;;;9.83;5.50;;;;;;;10.58;40.02;100412.52;1695491;84;21292;-71
2021/03/09 05:30:59;;;;;;;7.30;4.60;;;;;;;11.01;40.11;100419.58;1696275;84;21288;-70
2021/03/09 05:33:33;;;;;;;6.50;2.70;;;;;;;11.45;39.29;100423.02;1698212;84;21209;-69
2021/03/09 05:36:07;;;;;;;5.20;2.12;;;;;;;11.83;38.83;100433.18;1699052;84;21779;-70
2021/03/09 05:38:39;;;;;;;;;;;;;;;12.30;38.76;100430.94;1738427;82;21334;-70
2021/03/09 05:41:12;;;;;;;8.03;3.55;;;;;;;12.56;37.51;100433.78;1715415;82;20284;-69
2021/03/09 05:47:55;;;;;;;4.83;3.22;;;;;;;11.94;36.95;100452.73;1721355;82;21209;-69
2021/03/09 05:50:34;;;;;;;6.15;2.80;;;;;;;10.69;38.04;100451.67;1683346;85;21190;-65
2021/03/09 05:53:09;;;;;;;5.62;2.80;;;;;;;9.85;39.06;100449.23;1684200;85;21337;-69
2021/03/09 05:55:42;;;;;;;5.70;3.20;;;;;;;9.52;39.58;100456.75;1685035;85;21310;-69
2021/03/09 06:02:25;;;;;;;6.67;2.75;;;;;;;10.70;38.81;100446.77;1684864;84;21183;-72
2021/03/09 06:04:58;;;;;;;8.83;5.08;;;;;;;10.91;38.54;100467.20;1682127;84;21325;-70
2021/03/09 06:07:31;;;;;;;6.93;4.03;;;;;;;10.73;38.33;100467.47;1694179;82;21314;-63
2021/03/09 06:10:05;;;;;;;3.98;2.52;;;;;;;10.34;38.52;100473.48;1732172;82;21302;-68
2021/03/09 06:12:39;;;;;;;4.05;2.15;;;;;;;9.87;39.19;100483.45;1740156;82;22013;-68
2021/03/09 06:15:13;;;;;;;2.50;2.10;;;;;;;9.27;39.92;100484.02;1732719;82;21332;-69
2021/03/09 06:17:47;;;;;;;4.37;2.65;;;;;;;8.66;41.05;100489.77;1705462;84;21329;-68
2021/03/09 06:20:24;;;;;;;4.58;2.45;;;;;;;8.03;42.08;100499.34;1684718;84;21491;-66
2021/03/09 06:23:02;;;;;;;5.95;2.47;;;;;;;7.45;43.13;100495.78;1705149;84;21567;-69
2021/03/09 06:25:39;;;;;;;6.22;3.58;;;;;;;6.89;44.00;100492.93;1705279;84;21367;-66
2021/03/09 06:28:12;;;;;;;5.53;3.62;;;;;;;6.49;45.22;100500.05;1705156;84;21336;-71
2021/03/09 06:34:55;;;;;;;5.65;2.70;;;;;;;6.24;45.92;100502.63;1703912;83;21233;-67
2021/03/09 06:37:28;;;;;;;6.25;3.70;;;;;;;6.19;46.21;100504.23;1713451;83;21228;-65
2021/03/09 06:40:10;;;;;;;4.37;3.02;;;;;;;6.10;46.41;100507.45;1712629;83;22031;-69
2021/03/09 06:42:43;;;;;;;4.62;2.45;;;;;;;5.97;46.96;100499.62;1713426;83;21206;-67
2021/03/09 06:45:17;;;;;;;9.88;3.92;;;;;;;5.76;47.22;100506.66;1712368;83;21228;-69
2021/03/09 06:47:52;;;;;;;31.48;17.48;;;;;;;5.54;47.92;100505.09;1713543;83;21315;-70
2021/03/09 06:50:35;;;;;;;25.52;12.05;;;;;;;5.36;48.55;100505.33;1712315;83;21272;-63
2021/03/09 06:53:08;;;;;;;12.75;6.80;;;;;;;5.21;49.13;100504.98;1708409;82;21209;-65
2021/03/09 06:55:41;;;;;;;6.67;3.85;;;;;;;5.14;49.56;100501.11;1712384;83;21243;-67
2021/03/09 06:58:15;;;;;;;4.70;2.22;;;;;;;5.13;49.30;100503.81;1711727;82;21295;-68
2021/03/09 07:00:50;;;;;;;4.45;2.98;;;;;;;5.09;49.25;100503.61;1713574;83;21961;-69
2021/03/09 07:03:38;;;;;;;4.87;2.47;;;;;;;5.02;49.36;100506.22;1713396;83;21312;-68
2021/03/09 07:06:12;;;;;;;6.30;3.42;;;;;;;4.96;49.45;100519.13;1713519;83;21208;-69
2021/03/09 07:08:45;;;;;;;6.12;2.70;;;;;;;4.96;49.84;100510.05;1713701;83;21312;-66
2021/03/09 07:11:19;;;;;;;3.45;1.90;;;;;;;5.03;49.73;100513.92;1711509;83;21442;-64
2021/03/09 07:13:52;;;;;;;6.42;2.50;;;;;;;5.17;49.26;100519.09;1718218;81;22113;-67
2021/03/09 07:16:25;;;;;;;4.05;2.15;;;;;;;5.31;49.23;100519.05;1712553;81;21209;-65
2021/03/09 07:18:58;;;;;;;6.75;3.08;;;;;;;5.78;48.82;100519.91;1728443;81;22067;-62
2021/03/09 07:21:32;;;;;;;4.17;2.47;;;;;;;6.42;47.86;100521.75;1741912;81;21176;-64
2021/03/09 07:24:05;;;;;;;4.53;2.58;;;;;;;7.20;46.67;100518.48;1748486;82;21278;-71
2021/03/09 07:26:40;;;;;;;4.10;2.37;;;;;;;7.87;45.24;100514.46;1743279;82;21576;-69
2021/03/09 07:29:15;;;;;;;6.83;3.20;;;;;;;8.18;43.86;100510.41;1754371;81;21294;-67
2021/03/09 07:31:50;;;;;;;5.12;2.65;;;;;;;8.12;43.51;100515.13;1756217;81;21437;-69
2021/03/09 07:34:24;;;;;;;4.20;2.27;;;;;;;7.88;43.56;100516.14;1736391;81;21214;-68
2021/03/09 07:37:00;;;;;;;4.55;2.30;;;;;;;7.55;43.97;100528.52;1717495;83;21629;-72
2021/03/09 07:39:33;;;;;;;3.80;2.20;;;;;;;7.25;44.34;100528.10;1706191;83;21537;-67
2021/03/09 07:42:07;;;;;;;5.50;2.67;;;;;;;6.98;44.38;100532.63;1694872;84;21231;-63
2021/03/09 07:44:40;;;;;;;4.15;2.25;;;;;;;6.75;45.01;100525.95;1696973;83;21193;-66
2021/03/09 07:47:14;;;;;;;7.35;2.35;;;;;;;6.74;45.50;100528.64;1696377;84;21402;-65
2021/03/09 07:49:45;;;;;;;5.37;2.30;;;;;;;7.43;45.27;100525.02;1696190;84;21249;-67
2021/03/09 07:52:21;;;;;;;4.78;1.87;;;;;;;8.23;44.27;100530.46;1695177;84;21485;-68
2021/03/09 07:55:06;;;;;;;3.20;2.17;;;;;;;8.90;42.52;100531.42;1695808;84;21289;-69
2021/03/09 07:57:38;;;;;;;3.22;1.60;;;;;;;8.92;41.32;100536.05;1699666;82;21189;-65
2021/03/09 08:00:17;;;;;;;1.90;1.65;;;;;;;8.44;41.30;100543.23;1706009;82;21229;-64
2021/03/09 08:02:58;;;;;;;4.30;1.80;;;;;;;7.90;41.53;100545.06;1707854;83;22131;-70
2021/03/09 08:05:30;;;;;;;2.52;1.60;;;;;;;7.49;42.33;100548.51;1708719;84;21945;-69
2021/03/09 08:08:04;;;;;;;5.95;3.12;;;;;;;7.15;42.59;100547.91;1709493;82;21199;-66
2021/03/09 08:10:37;;;;;;;;;;;;;;;7.40;42.33;100545.26;1713329;83;21480;-69
2021/03/09 08:13:15;;;;;;;3.25;1.85;;;;;;;8.23;41.29;100551.33;1710913;83;20189;-69
2021/03/09 08:15:50;;;;;;;2.52;1.85;;;;;;;8.91;40.86;100546.95;1710369;83;21381;-69
2021/03/09 08:18:29;;;;;;;2.65;1.67;;;;;;;9.06;40.29;100561.92;1702898;84;21469;-65
2021/03/09 08:21:03;;;;;;;5.20;3.02;;;;;;;8.64;41.00;100557.76;1699933;83;21175;-69
2021/03/09 08:23:49;;;;;;;32.95;22.32;;;;;;;7.97;41.37;100559.77;1723253;83;21194;-72
2021/03/09 08:26:36;;;;;;;6.10;3.33;;;;;;;7.37;42.45;100562.39;1721955;83;21203;-70
2021/03/09 08:29:33;;;;;;;2.55;1.32;;;;;;;6.83;43.54;100571.44;1723346;83;21179;-70
2021/03/09 08:32:39;;;;;;;2.58;1.57;;;;;;;6.67;43.87;100572.93;1673348;85;21355;-69
2021/03/09 08:35:21;;;;;;;4.72;1.37;;;;;;;7.24;44.58;100579.34;1678802;82;21312;-68
2021/03/09 08:37:54;;;;;;;4.55;2.35;;;;;;;7.77;44.03;100572.10;1705410;83;22310;-69
2021/03/09 08:40:27;;;;;;;2.47;1.55;;;;;;;7.88;43.58;100568.27;1705494;84;21368;-65
2021/03/09 08:43:05;;;;;;;2.47;1.65;;;;;;;7.95;42.59;100568.18;1686886;83;21164;-65
2021/03/09 08:45:43;;;;;;;2.00;1.50;;;;;;;7.95;42.37;100574.70;1679617;85;21300;-65
2021/03/09 08:48:17;;;;;;;1.75;1.05;;;;;;;8.52;41.62;100572.20;1679790;85;22085;-70
2021/03/09 08:50:50;;;;;;;2.67;1.15;;;;;;;9.16;41.78;100574.62;1680011;85;21425;-68
2021/03/09 08:53:32;;;;;;;1.77;1.17;;;;;;;9.44;39.93;100569.73;1692351;83;21289;-68
2021/03/09 08:56:07;;;;;;;5.62;2.83;;;;;;;9.31;39.38;100581.28;1684252;83;21402;-66
2021/03/09 08:58:43;;;;;;;3.83;1.62;;;;;;;8.81;39.46;100585.19;1710369;82;21294;-72
2021/03/09 09:01:25;;;;;;;17.80;7.05;;;;;;;8.54;39.29;100592.48;1705030;84;21331;-69
2021/03/09 09:03:59;;;;;;;11.75;6.28;;;;;;;9.17;39.98;100586.25;1683684;83;21507;-67
2021/03/09 09:06:33;;;;;;;4.60;2.30;;;;;;;10.32;39.84;100586.63;1711498;83;21638;-70
2021/03/09 09:09:07;;;;;;;5.42;1.40;;;;;;;11.00;38.23;100589.53;1715267;83;21305;-70
2021/03/09 09:11:42;;;;;;;2.45;1.50;;;;;;;10.95;37.85;100600.88;1715134;83;22217;-72
2021/03/09 09:14:19;;;;;;;3.25;1.70;;;;;;;10.25;38.06;100612.91;1715697;83;21502;-71
2021/03/09 09:16:54;;;;;;;2.40;1.80;;;;;;;9.37;39.50;100612.98;1714601;83;22106;-69
2021/03/09 09:19:29;;;;;;;4.17;1.85;;;;;;;8.62;41.20;100620.95;1709793;82;21293;-68
2021/03/09 09:22:04;;;;;;;2.25;1.50;;;;;;;7.95;42.24;100622.44;1704737;83;21542;-70
2021/03/09 09:24:38;;;;;;;3.00;1.87;;;;;;;7.40;42.61;100627.31;1705278;83;21349;-70
2021/03/09 09:27:14;;;;;;;2.08;1.30;;;;;;;7.15;44.22;100624.72;1704463;84;21228;-70
2021/03/09 09:29:55;;;;;;;2.67;1.35;;;;;;;7.12;44.23;100637.47;1705242;84;21178;-68
2021/03/09 09:32:29;;;;;;;2.05;1.10;;;;;;;7.09;43.48;100636.87;1714642;82;21492;-67
2021/03/09 09:35:03;;;;;;;1.50;1.25;;;;;;;6.79;43.24;100639.30;1720783;83;21541;-69
2021/03/09 09:37:36;;;;;;;1.77;1.35;;;;;;;6.49;44.05;100641.80;1723735;83;21261;-70
2021/03/09 09:40:10;;;;;;;4.55;2.02;;;;;;;6.20;45.03;100651.95;1675718;84;21198;-69
2021/03/09 09:42:43;;;;;;;7.20;3.47;;;;;;;5.89;46.33;100650.02;1723849;82;21480;-68
2021/03/09 09:45:17;;;;;;;7.17;4.17;;;;;;;5.62;47.44;100649.10;1659152;85;21254;-67
2021/03/09 09:47:51;;;;;;;6.90;3.42;;;;;;;5.40;47.84;100648.74;1682941;83;21485;-65
2021/03/09 09:50:25;;;;;;;6.22;3.42;;;;;;;5.22;48.24;100648.58;1715867;83;21306;-65
2021/03/09 09:53:00;;;;;;;5.58;3.12;;;;;;;5.09;48.28;100648.47;1714554;83;21337;-68
2021/03/09 09:55:34;;;;;;;8.95;4.60;;;;;;;5.01;49.36;100654.60;1718549;82;21502;-67
2021/03/09 09:58:12;;;;;;;7.30;3.27;;;;;;;4.95;49.66;100655.41;1722637;83;21227;-66
2021/03/09 10:00:59;;;;;;;8.08;3.05;;;;;;;4.81;50.42;100661.87;1723759;83;21986;-66
2021/03/09 10:03:33;;;;;;;6.22;3.62;;;;;;;4.59;51.33;100666.16;1722720;83;21263;-64
2021/03/09 10:06:18;;;;;;;9.73;3.70;;;;;;;4.36;51.63;100670.54;1725215;81;21300;-65
2021/03/09 10:08:52;;;;;;;6.05;3.42;;;;;;;4.11;52.44;100669.77;1714712;83;21483;-65
2021/03/09 10:11:25;;;;;;;5.00;3.58;;;;;;;3.92;52.65;100669.11;1715852;83;22030;-65
2021/03/09 10:14:08;;;;;;;4.50;3.10;;;;;;;3.79;53.25;100672.86;1714727;83;21369;-64
2021/03/09 10:16:42;;;;;;;6.90;4.08;;;;;;;3.69;53.58;100672.13;1713873;83;21233;-66
2021/03/09 10:19:18;;;;;;;4.17;3.25;;;;;;;3.68;54.17;100669.98;1714610;83;21323;-67
2021/03/09 10:21:55;;;;;;;12.25;6.17;;;;;;;3.72;54.03;100672.81;1715501;83;21308;-65
2021/03/09 10:24:32;;;;;;;4.67;3.05;;;;;;;3.74;54.88;100669.67;1713616;83;21380;-67
2021/03/09 10:27:06;;;;;;;6.75;3.08;;;;;;;3.69;54.70;100672.97;1715527;83;21206;-66
2021/03/09 10:29:38;;;;;;;;;;;;;;;3.66;54.97;100666.66;1688808;83;21315;-67
2021/03/09 10:32:16;;;;;;;3.65;2.52;;;;;;;3.70;54.54;100675.91;1710985;83;20307;-66
2021/03/09 10:34:53;;;;;;;9.53;3.87;;;;;;;3.69;54.57;100681.19;1715881;83;21178;-65
2021/03/09 10:37:37;;;;;;;8.28;4.72;;;;;;;3.66;54.61;100692.55;1715551;83;21448;-66
2021/03/09 10:40:14;;;;;;;7.22;4.05;;;;;;;3.45;54.43;100692.84;1715871;83;21340;-66
2021/03/09 10:42:51;;;;;;;7.28;3.52;;;;;;;3.17;54.71;100702.05;1715719;82;22153;-64
2021/03/09 10:45:29;;;;;;;4.12;2.65;;;;;;;3.04;55.28;100704.87;1708030;84;21609;-64
2021/03/09 10:48:03;;;;;;;4.47;2.90;;;;;;;3.04;55.85;100705.31;1707375;84;21328;-67
2021/03/09 10:50:45;;;;;;;3.20;2.40;;;;;;;3.07;56.26;100712.48;1708193;84;22119;-65
2021/03/09 10:57:28;;;;;;;5.03;2.95;;;;;;;3.07;56.64;100709.89;1708014;84;21197;-64
2021/03/09 11:00:03;;;;;;;6.15;3.20;;;;;;;3.05;57.25;100718.20;1706992;84;22022;-65
2021/03/09 11:02:36;;;;;;;8.70;4.67;;;;;;;3.06;57.27;100715.13;1708036;84;22101;-65
2021/03/09 11:05:10;;;;;;;10.18;4.05;;;;;;;3.10;57.36;100716.66;1700529;82;22165;-66
2021/03/09 11:07:43;;;;;;;4.40;2.80;;;;;;;3.26;57.92;100718.39;1680279;82;21878;-63
2021/03/09 11:10:19;;;;;;;3.80;2.60;;;;;;;3.41;57.22;100727.12;1709531;83;21330;-66
2021/03/09 11:12:53;;;;;;;3.75;2.72;;;;;;;3.45;56.89;100723.45;1710941;83;21303;-64
2021/03/09 11:15:26;;;;;;;2.75;2.22;;;;;;;3.54;56.91;100729.43;1710103;83;21484;-65
2021/03/09 11:17:59;;;;;;;3.67;2.70;;;;;;;3.65;56.39;100722.41;1710708;83;21334;-66
2021/03/09 11:20:34;;;;;;;4.20;2.98;;;;;;;3.69;56.38;100714.84;1709635;83;21624;-65
2021/03/09 11:23:08;;;;;;;4.47;2.95;;;;;;;3.69;54.91;100723.46;1710835;83;21326;-63
2021/03/09 11:25:41;;;;;;;9.75;2.83;;;;;;;3.63;53.63;100719.88;1709447;83;21215;-63
2021/03/09 11:28:15;;;;;;;7.12;2.72;;;;;;;3.54;53.89;100735.06;1717061;82;21683;-63
2021/03/09 11:30:49;;;;;;;7.55;2.72;;;;;;;3.50;53.20;100736.14;1721443;83;21312;-62
2021/03/09 11:33:22;;;;;;;5.67;2.87;;;;;;;3.40;52.44;100741.80;1714942;82;21283;-67
2021/03/09 11:35:56;;;;;;;6.20;3.60;;;;;;;3.35;52.32;100738.61;1710873;83;22008;-64
2021/03/09 11:50:11;;;;;;;2.35;1.30;;;;;;;3.05;52.12;100756.15;1716759;82;21220;-59
2021/03/09 11:52:45;;;;;;;2.22;1.47;;;;;;;3.10;51.29;100770.98;1721034;82;21331;-61
2021/03/09 11:55:18;;;;;;;2.37;1.32;;;;;;;3.13;50.44;100769.06;1726703;82;21556;-63
2021/03/09 11:57:53;;;;;;;2.62;1.62;;;;;;;3.19;49.80;100774.41;1728508;83;22023;-64
2021/03/09 12:00:48;;;;;;;2.55;1.57;;;;;;;3.24;49.51;100777.15;1727773;83;21216;-67
2021/03/09 12:03:22;;;;;;;2.60;1.40;;;;;;;3.23;49.69;100778.05;1726347;82;21184;-62
2021/03/09 12:05:55;;;;;;;;;;;;;;;3.20;50.87;100782.08;1775983;79;21263;-67
2021/03/09 12:08:28;;;;;;;6.58;2.30;;;;;;;3.14;51.27;100791.45;1768648;81;20207;-65
2021/03/09 12:11:01;;;;;;;1.95;1.27;;;;;;;3.09;52.07;100788.70;1768273;81;21979;-70
2021/03/09 12:13:34;;;;;;;2.37;1.43;;;;;;;3.08;52.19;100790.44;1768852;81;21295;-70
2021/03/09 12:16:08;;;;;;;2.17;1.50;;;;;;;3.09;51.40;100794.72;1768418;81;21619;-67
2021/03/09 12:18:44;;;;;;;3.35;1.80;;;;;;;3.24;51.34;100799.59;1768547;81;22121;-71
2021/03/09 12:21:17;;;;;;;5.05;1.87;;;;;;;3.36;50.19;100794.65;1768484;81;21458;-67
2021/03/09 12:23:50;;;;;;;11.00;4.05;;;;;;;3.45;49.32;100801.09;1768938;79;22103;-67
2021/03/09 12:26:24;;;;;;;5.03;2.62;;;;;;;3.48;49.34;100807.87;1778622;79;22147;-70
2021/03/09 12:28:58;;;;;;;3.75;1.87;;;;;;;3.48;49.34;100807.87;1768421;81;21290;-65
2021/03/09 12:31:31;;;;;;;4.15;2.12;;;;;;;3.44;48.48;100814.13;1752321;80;22127;-63
2021/03/09 12:42:58;;;;;;;3.30;1.87;;;;;;;3.33;49.25;100829.73;1748283;80;22005;-70
2021/03/09 12:45:32;;;;;;;5.10;2.00;;;;;;;3.31;47.95;100835.44;1738811;82;21316;-66
2021/03/09 12:48:06;;;;;;;2.77;1.75;;;;;;;3.32;48.02;100840.98;1735540;81;22135;-70
2021/03/09 12:50:41;;;;;;;3.30;2.25;;;;;;;3.33;47.85;100841.38;1773684;80;21184;-68